Time;durP1;ratioP1;P1;durP2;ratioP2;P2;SDS_P1;SDS_P2;PMS_P1;PMS_P2;Temp;Humidity;BMP_temperature;BMP_pressure;BME280_temperature;BME280_humidity;BME280_pressure;Samples;Min_cycle;Max_cycle;Signal;HPM_P1;HPM_P2
2022/10/05 00:02:20;;;;;;;30.75;3.50;;;;;;;9.84;72.09;98976.66;4972714;28;20429;-87
2022/10/05 00:04:48;;;;;;;4.97;3.00;;;;;;;9.74;73.06;98978.88;4972842;28;20075;-85
2022/10/05 00:09:55;;;;;;;7.03;2.90;;;;;;;9.63;72.86;98959.25;4967468;28;20035;-83
2022/10/05 00:12:23;;;;;;;6.65;2.60;;;;;;;9.69;73.19;98974.34;4972907;28;20121;-85
2022/10/05 00:14:52;;;;;;;3.53;2.42;;;;;;;9.71;72.85;98972.13;4973287;28;20070;-84
2022/10/05 00:17:26;;;;;;;5.10;2.72;;;;;;;9.78;73.19;98967.00;4973249;28;20039;-80
2022/10/05 00:19:53;;;;;;;8.10;2.95;;;;;;;9.67;73.46;98967.59;4982298;28;20146;-82
2022/10/05 00:22:28;;;;;;;9.02;2.83;;;;;;;9.67;73.32;98962.13;4964045;28;20509;-84
2022/10/05 00:24:57;;;;;;;4.18;2.60;;;;;;;9.74;73.44;98968.78;4954500;28;20110;-84
2022/10/05 00:27:30;;;;;;;7.85;3.30;;;;;;;9.60;73.63;98944.31;4965069;28;20043;-83
2022/10/05 00:29:59;;;;;;;4.28;2.70;;;;;;;9.66;73.23;98974.97;4936275;29;20040;-85
2022/10/05 00:32:26;;;;;;;7.95;2.83;;;;;;;9.57;73.50;98955.88;4947174;28;20051;-84
2022/10/05 00:34:56;;;;;;;3.60;2.17;;;;;;;9.61;73.96;98966.94;4972088;28;20046;-82
2022/10/05 00:37:22;;;;;;;4.68;2.70;;;;;;;9.28;73.33;98920.13;4971687;28;20127;-82
2022/10/05 00:39:48;;;;;;;3.63;2.45;;;;;;;9.54;73.66;98963.88;4972609;28;20042;-82
2022/10/05 00:42:37;;;;;;;7.03;2.70;;;;;;;9.56;74.00;98964.34;4972409;28;20455;-83
2022/10/05 00:45:12;;;;;;;4.47;2.70;;;;;;;9.46;74.22;98973.63;4954757;28;20420;-82
2022/10/05 00:47:50;;;;;;;3.00;2.30;;;;;;;9.48;74.07;98959.69;4974663;28;20564;-82
2022/10/05 00:50:37;;;;;;;3.97;2.30;;;;;;;9.44;74.11;98958.66;4975034;28;20058;-82
2022/10/05 00:53:28;;;;;;;4.35;2.50;;;;;;;9.48;74.11;98968.66;4976108;28;20057;-82
2022/10/05 00:55:59;;;;;;;3.70;2.38;;;;;;;9.48;74.54;98971.38;4975905;28;20598;-82
2022/10/05 00:58:44;;;;;;;5.68;2.45;;;;;;;9.50;74.35;98971.06;4974756;28;20097;-84
2022/10/05 01:01:16;;;;;;;4.13;2.45;;;;;;;9.48;74.62;98963.19;4975670;28;20049;-82
2022/10/05 01:04:03;;;;;;;5.25;2.90;;;;;;;9.50;74.57;98974.59;4984436;28;20042;-84
2022/10/05 01:07:03;;;;;;;8.55;2.85;;;;;;;9.52;75.06;98975.09;4975342;28;20137;-81
2022/10/05 01:09:43;;;;;;;4.90;2.60;;;;;;;9.41;75.16;98958.19;4936839;29;20110;-83
2022/10/05 01:12:34;;;;;;;5.80;3.50;;;;;;;9.47;74.93;98968.97;4973157;28;20059;-82
2022/10/05 01:15:21;;;;;;;4.07;2.45;;;;;;;9.39;75.47;98982.25;4956600;28;20397;-83
2022/10/05 01:17:58;;;;;;;2.72;2.22;;;;;;;9.39;75.62;98976.78;4973405;28;20133;-82
2022/10/05 01:20:34;;;;;;;6.63;2.47;;;;;;;9.45;75.28;98980.19;4955398;28;20050;-82
2022/10/05 01:23:10;;;;;;;12.60;2.80;;;;;;;9.39;75.29;98984.19;4972961;28;20105;-84
2022/10/05 01:25:54;;;;;;;5.17;2.50;;;;;;;9.43;75.61;98987.88;4973309;28;20113;-83
2022/10/05 01:28:29;;;;;;;7.07;2.20;;;;;;;9.13;75.32;98949.38;4973217;28;20057;-83
2022/10/05 01:31:27;;;;;;;3.60;2.38;;;;;;;9.35;75.88;98981.28;4961985;28;20050;-80
2022/10/05 01:34:21;;;;;;;5.15;2.60;;;;;;;9.26;76.06;98977.69;4972594;28;20050;-81
2022/10/05 01:37:01;;;;;;;10.27;2.50;;;;;;;9.35;76.05;98985.94;4957069;28;20057;-81
2022/10/05 01:39:44;;;;;;;5.47;2.60;;;;;;;9.32;75.86;98983.81;4956621;28;20042;-81
2022/10/05 01:42:28;;;;;;;4.75;2.38;;;;;;;9.31;76.07;98993.13;4961703;28;20133;-82
2022/10/05 01:45:33;;;;;;;7.97;3.22;;;;;;;9.15;76.29;98954.53;4956427;28;20063;-83
2022/10/05 01:48:14;;;;;;;3.75;2.60;;;;;;;9.31;76.28;98983.03;4910820;28;20061;-82
2022/10/05 01:51:06;;;;;;;3.35;2.67;;;;;;;9.26;76.36;98972.22;4958002;28;20050;-83
2022/10/05 01:53:47;;;;;;;5.65;2.55;;;;;;;9.32;76.57;98981.09;4974445;28;20053;-83
2022/10/05 01:56:38;;;;;;;4.60;2.60;;;;;;;9.39;76.50;98970.53;4974684;28;20616;-82
2022/10/05 01:59:17;;;;;;;4.35;2.83;;;;;;;9.38;76.56;98971.66;4955764;28;20046;-83
2022/10/05 02:01:50;;;;;;;4.63;3.15;;;;;;;9.40;76.27;98985.78;4957352;28;20074;-83
2022/10/05 02:04:36;;;;;;;4.93;3.20;;;;;;;9.40;77.06;98981.16;4974446;28;20050;-81
2022/10/05 02:07:10;;;;;;;4.40;2.87;;;;;;;9.42;77.19;98986.28;4974730;28;20053;-83
2022/10/05 02:09:47;;;;;;;6.70;3.00;;;;;;;9.39;76.79;98984.19;4973237;28;20317;-83
2022/10/05 02:14:48;;;;;;;6.45;3.22;;;;;;;9.38;77.49;98990.75;4974473;28;20420;-83
2022/10/05 02:17:18;;;;;;;5.05;3.00;;;;;;;9.18;77.56;98971.06;4955308;29;20398;-83
2022/10/05 02:19:57;;;;;;;7.15;3.28;;;;;;;9.36;77.74;98991.06;4938117;29;20481;-83
2022/10/05 02:22:33;;;;;;;5.47;3.35;;;;;;;9.35;77.44;98984.00;4951776;28;20058;-83
2022/10/05 02:25:09;;;;;;;4.93;3.22;;;;;;;9.30;77.57;98978.66;4974441;28;20054;-83
2022/10/05 02:28:03;;;;;;;9.13;3.60;;;;;;;9.37;77.79;98984.50;4952661;29;20046;-83
2022/10/05 02:30:33;;;;;;;5.28;3.28;;;;;;;9.28;77.86;98967.28;4955083;29;20054;-82
2022/10/05 02:33:07;;;;;;;4.32;3.17;;;;;;;9.32;77.64;98981.09;4954145;28;20047;-84
2022/10/05 02:35:33;;;;;;;6.72;3.60;;;;;;;9.17;77.97;98964.03;4964424;28;20448;-83
2022/10/05 02:38:26;;;;;;;6.43;3.43;;;;;;;9.30;78.13;98981.38;4956578;28;20053;-82
2022/10/05 02:41:03;;;;;;;6.97;3.67;;;;;;;9.28;78.17;98985.56;4973665;28;20042;-84
2022/10/05 02:43:40;;;;;;;4.85;3.30;;;;;;;9.34;78.23;98990.59;4946816;29;20149;-83
2022/10/05 02:46:26;;;;;;;7.22;3.63;;;;;;;9.36;78.32;98992.97;4954695;28;20386;-83
2022/10/05 02:48:58;;;;;;;7.15;3.58;;;;;;;9.20;78.70;98965.28;4973373;28;20043;-82
2022/10/05 02:51:36;;;;;;;9.00;3.90;;;;;;;9.22;78.74;98970.44;4974051;28;20049;-84
2022/10/05 02:54:22;;;;;;;7.05;4.40;;;;;;;9.04;78.67;98940.38;4971897;28;20089;-82
2022/10/05 02:57:11;;;;;;;7.63;4.20;;;;;;;9.38;78.97;98982.56;4958376;28;20051;-81
2022/10/05 02:59:46;;;;;;;9.13;4.18;;;;;;;9.46;78.55;99000.09;4954369;29;20051;-83
2022/10/05 03:02:23;;;;;;;7.38;3.83;;;;;;;9.25;78.52;98981.53;4954480;29;20083;-83
2022/10/05 03:05:19;;;;;;;6.82;4.13;;;;;;;9.26;78.79;98994.06;4972436;28;20046;-83
2022/10/05 03:08:08;;;;;;;9.93;4.97;;;;;;;9.21;79.06;98996.91;4972756;28;20460;-81
2022/10/05 03:11:03;;;;;;;8.80;4.78;;;;;;;9.16;79.38;98992.38;4968107;28;20039;-83
2022/10/05 03:14:00;;;;;;;14.55;4.80;;;;;;;9.18;79.29;98992.09;4968878;28;20683;-82
2022/10/05 03:17:05;;;;;;;9.00;4.82;;;;;;;9.24;79.26;99006.38;4954140;29;20055;-83
2022/10/05 03:19:41;;;;;;;9.00;4.95;;;;;;;9.21;79.39;98998.84;4927880;28;20058;-83
2022/10/05 03:22:28;;;;;;;11.05;5.05;;;;;;;9.22;79.88;99003.97;4973614;28;20046;-81
2022/10/05 03:25:21;;;;;;;11.55;5.00;;;;;;;9.27;79.81;99005.75;4969555;28;20043;-82
2022/10/05 03:28:01;;;;;;;8.25;5.07;;;;;;;9.34;79.35;99003.41;4954913;28;20089;-81
2022/10/05 03:30:40;;;;;;;8.95;5.47;;;;;;;9.28;79.42;99004.66;4939695;28;20509;-83
2022/10/05 03:33:45;;;;;;;11.90;5.63;;;;;;;9.17;79.23;98993.19;4952888;28;20042;-80
2022/10/05 03:36:15;;;;;;;15.27;5.30;;;;;;;9.17;79.59;99017.72;4953549;28;20050;-81
2022/10/05 03:38:57;;;;;;;9.35;5.75;;;;;;;9.22;79.69;99019.53;4939783;28;20455;-84
2022/10/05 03:41:35;;;;;;;8.65;5.20;;;;;;;9.13;79.32;99019.47;4955816;28;20049;-84
2022/10/05 03:44:41;;;;;;;9.15;5.20;;;;;;;9.11;79.71;99017.06;4946635;29;20062;-80
2022/10/05 03:47:16;;;;;;;11.13;5.55;;;;;;;9.05;79.99;99001.16;4947853;28;20043;-79
2022/10/05 03:49:50;;;;;;;11.83;5.73;;;;;;;9.11;80.01;99017.06;4955581;28;20039;-82
2022/10/05 03:52:22;;;;;;;7.20;4.93;;;;;;;9.07;79.86;99007.06;4955663;28;20658;-81
2022/10/05 03:54:59;;;;;;;13.82;5.85;;;;;;;9.05;79.99;99004.66;4935048;28;20089;-82
2022/10/05 03:57:28;;;;;;;10.80;5.32;;;;;;;9.12;79.83;99015.13;4969928;28;20034;-83
2022/10/05 04:00:15;;;;;;;10.38;6.38;;;;;;;9.21;80.00;99013.28;4970591;28;20512;-81
2022/10/05 04:03:17;;;;;;;10.80;5.18;;;;;;;9.16;79.78;99014.19;4925139;28;20038;-81
2022/10/05 04:06:10;;;;;;;11.65;5.60;;;;;;;9.16;79.83;99022.38;4972664;28;20034;-81
2022/10/05 04:08:59;;;;;;;12.70;5.20;;;;;;;9.17;79.96;99018.56;4964340;28;20532;-81
2022/10/05 04:11:34;;;;;;;19.15;8.90;;;;;;;9.11;79.90;99003.44;4970815;28;20055;-80
2022/10/05 04:14:12;;;;;;;11.07;5.43;;;;;;;9.18;79.59;99024.81;4970586;28;20035;-81
2022/10/05 04:16:43;;;;;;;8.80;5.53;;;;;;;9.15;80.05;99020.78;4969357;28;20393;-83
2022/10/05 04:19:26;;;;;;;10.18;6.60;;;;;;;9.12;80.07;99026.06;4954991;28;20074;-81
2022/10/05 04:22:12;;;;;;;9.48;5.90;;;;;;;9.12;80.41;99026.06;4972949;28;20071;-83
2022/10/05 04:24:59;;;;;;;11.57;5.80;;;;;;;9.03;79.87;99025.19;4958459;28;20409;-82
2022/10/05 04:27:52;;;;;;;11.60;6.65;;;;;;;9.17;79.82;99031.34;4974873;28;20052;-82
2022/10/05 04:30:21;;;;;;;12.38;6.15;;;;;;;8.91;79.69;98987.59;4975294;28;20053;-81
2022/10/05 04:32:58;;;;;;;12.20;5.95;;;;;;;9.15;79.67;99019.97;4974146;28;20047;-81
2022/10/05 04:35:51;;;;;;;13.32;6.20;;;;;;;9.31;79.94;99039.50;4975364;28;20043;-79
2022/10/05 04:38:26;;;;;;;10.65;5.65;;;;;;;9.27;80.20;99024.84;4965608;28;20409;-77
2022/10/05 04:41:11;;;;;;;11.85;6.68;;;;;;;9.35;79.48;99027.66;4962943;28;20158;-80
2022/10/05 04:44:05;;;;;;;12.35;5.78;;;;;;;9.32;79.73;99035.66;4957063;28;20050;-77
2022/10/05 04:47:22;;;;;;;10.63;6.18;;;;;;;9.37;80.05;99032.78;4973400;28;20051;-77
2022/10/05 04:50:16;;;;;;;12.32;6.45;;;;;;;9.33;79.30;99035.31;4956807;29;20051;-80
2022/10/05 04:53:10;;;;;;;12.23;5.90;;;;;;;9.32;79.55;99035.66;4973197;28;20090;-77
2022/10/05 04:55:57;;;;;;;13.45;6.20;;;;;;;9.30;79.76;99041.41;4943956;28;20059;-77
2022/10/05 04:58:23;;;;;;;;;;;;;;;9.40;79.66;99043.06;4975752;28;20039;-76
2022/10/05 05:01:18;;;;;;;11.93;7.32;;;;;;;9.40;79.40;99043.91;4958549;28;19926;-79
2022/10/05 05:03:59;;;;;;;13.90;8.30;;;;;;;9.39;79.24;99042.25;4936014;28;20043;-74
2022/10/05 05:06:39;;;;;;;12.73;7.13;;;;;;;9.39;79.32;99034.06;4957905;28;20057;-80
2022/10/05 05:09:26;;;;;;;14.40;7.32;;;;;;;9.44;79.34;99044.06;4974770;28;20135;-79
2022/10/05 05:12:23;;;;;;;12.07;7.43;;;;;;;9.43;79.32;99047.09;4968272;28;20113;-79
2022/10/05 05:15:11;;;;;;;11.38;6.78;;;;;;;9.40;79.27;99043.06;4944747;28;20043;-77
2022/10/05 05:17:55;;;;;;;10.27;6.13;;;;;;;9.43;79.30;99039.72;4956217;28;20134;-79
2022/10/05 05:20:41;;;;;;;10.88;6.72;;;;;;;9.46;79.42;99047.28;4939338;28;20476;-78
2022/10/05 05:23:38;;;;;;;11.30;6.93;;;;;;;9.56;79.45;99047.00;4950124;29;20107;-74
2022/10/05 05:26:45;;;;;;;11.10;6.90;;;;;;;9.61;79.30;99048.81;4971629;28;20046;-77
2022/10/05 05:29:30;;;;;;;16.08;6.35;;;;;;;9.60;78.79;99047.19;4925879;29;20047;-81
2022/10/05 05:32:08;;;;;;;12.20;6.57;;;;;;;9.57;79.69;99050.53;4958745;28;20051;-79
2022/10/05 05:34:40;;;;;;;12.48;6.25;;;;;;;9.60;79.61;99048.03;4949618;28;20053;-81
2022/10/05 05:37:27;;;;;;;9.18;5.20;;;;;;;9.62;78.67;99045.75;4974682;28;20057;-80
2022/10/05 05:40:02;;;;;;;9.20;6.10;;;;;;;9.65;78.70;99045.16;4956734;28;20125;-79
2022/10/05 05:42:38;;;;;;;10.07;6.13;;;;;;;9.71;78.79;99040.38;4957277;28;20046;-77
2022/10/05 05:45:21;;;;;;;9.70;6.38;;;;;;;9.68;79.03;99038.25;4975032;28;20468;-80
2022/10/05 05:47:53;;;;;;;16.85;6.35;;;;;;;9.65;78.48;99038.88;4956839;28;20420;-80
2022/10/05 05:50:29;;;;;;;11.82;6.40;;;;;;;9.71;78.88;99045.81;4957998;28;20035;-80
2022/10/05 05:53:43;;;;;;;11.65;6.40;;;;;;;9.74;78.85;99056.13;4956876;28;20050;-81
2022/10/05 05:56:13;;;;;;;15.80;7.40;;;;;;;9.75;79.10;99055.00;4950524;28;20134;-81
2022/10/05 05:58:43;;;;;;;12.27;6.28;;;;;;;9.74;78.32;99060.78;4955712;28;20471;-84
2022/10/05 06:01:38;;;;;;;9.75;5.40;;;;;;;9.67;78.06;99053.03;4956985;28;20150;-81
2022/10/05 06:04:30;;;;;;;10.20;5.55;;;;;;;9.69;78.08;99058.97;4936329;28;20050;-78
2022/10/05 06:06:59;;;;;;;9.75;5.20;;;;;;;9.71;78.39;99059.47;4974150;28;20185;-83
2022/10/05 06:09:36;;;;;;;10.68;5.43;;;;;;;9.80;78.29;99056.75;4952938;28;20039;-83
2022/10/05 06:12:23;;;;;;;10.32;5.82;;;;;;;9.89;77.85;99060.34;4971987;28;20455;-82
2022/10/05 06:14:55;;;;;;;7.55;4.78;;;;;;;9.92;77.60;99059.72;4973719;28;20123;-83
2022/10/05 06:17:44;;;;;;;8.38;4.40;;;;;;;9.89;76.74;99060.34;4974412;28;20061;-82
2022/10/05 06:20:36;;;;;;;5.85;3.10;;;;;;;9.84;75.57;99060.50;4959384;28;20529;-84
2022/10/05 06:23:11;;;;;;;5.80;3.70;;;;;;;9.91;76.07;99069.03;4954960;28;20106;-84
2022/10/05 06:26:20;;;;;;;6.45;4.03;;;;;;;9.94;77.47;99073.88;4964039;28;20482;-83
2022/10/05 06:28:57;;;;;;;8.65;3.15;;;;;;;9.82;74.63;99074.44;4972448;28;20078;-84
2022/10/05 06:31:28;;;;;;;5.35;2.58;;;;;;;9.81;73.73;99075.56;4953341;28;20046;-83
2022/10/05 06:34:33;;;;;;;5.82;2.42;;;;;;;9.85;74.16;99079.28;4956908;28;20047;-83
2022/10/05 06:37:03;;;;;;;4.45;2.63;;;;;;;9.86;73.66;99083.63;4960237;28;20118;-84
2022/10/05 06:39:41;;;;;;;4.43;2.45;;;;;;;9.89;73.07;99079.47;4959575;28;20042;-83
2022/10/05 06:42:40;;;;;;;6.30;2.50;;;;;;;9.78;73.82;99087.13;4973870;28;20138;-80
2022/10/05 06:45:53;;;;;;;9.68;3.00;;;;;;;9.93;75.06;99087.81;4954386;28;20091;-79
2022/10/05 06:48:50;;;;;;;6.25;3.03;;;;;;;9.94;74.81;99089.44;4955005;29;20051;-78
2022/10/05 06:52:07;;;;;;;7.90;2.75;;;;;;;9.99;74.52;99098.28;4962144;28;20039;-80
2022/10/05 06:54:58;;;;;;;5.25;2.70;;;;;;;9.98;74.42;99096.69;4954756;29;20393;-83
2022/10/05 06:57:54;;;;;;;5.72;3.33;;;;;;;9.96;73.80;99100.84;4948774;28;20078;-84
2022/10/05 07:00:23;;;;;;;7.43;2.65;;;;;;;9.97;74.09;99100.56;4954194;28;20047;-82
2022/10/05 07:02:59;;;;;;;15.60;2.55;;;;;;;9.96;73.73;99107.13;4967853;28;20508;-81
2022/10/05 07:05:31;;;;;;;4.25;2.55;;;;;;;10.00;74.00;99110.84;4937857;28;20103;-83
2022/10/05 07:08:13;;;;;;;6.85;3.85;;;;;;;9.95;74.91;99110.97;4964719;28;20042;-84
2022/10/05 07:11:13;;;;;;;7.10;3.63;;;;;;;10.10;75.40;99121.50;4956247;28;20065;-81
2022/10/05 07:13:50;;;;;;;7.50;3.13;;;;;;;10.07;75.13;99126.78;4960855;28;20047;-83
2022/10/05 07:16:41;;;;;;;5.70;3.15;;;;;;;10.08;74.99;99129.19;4961629;28;20043;-80
2022/10/05 07:19:26;;;;;;;6.45;3.13;;;;;;;9.96;74.07;99128.16;4973045;28;20416;-82
2022/10/05 07:22:30;;;;;;;4.68;2.75;;;;;;;10.02;75.06;99127.72;4972075;28;20559;-77
2022/10/05 07:25:11;;;;;;;6.45;3.28;;;;;;;10.03;73.46;99125.78;4950826;28;20081;-84
2022/10/05 07:28:08;;;;;;;6.10;3.38;;;;;;;9.95;74.11;99129.28;4955716;28;20042;-81
2022/10/05 07:30:54;;;;;;;7.65;3.72;;;;;;;9.94;74.03;99138.59;4970230;28;20508;-82
2022/10/05 07:33:29;;;;;;;5.35;3.00;;;;;;;9.83;73.83;99138.03;4949680;28;20050;-82
2022/10/05 07:39:16;;;;;;;4.93;3.10;;;;;;;9.92;74.98;99143.56;4955985;28;20042;-82
2022/10/05 07:41:47;;;;;;;6.60;3.28;;;;;;;10.01;74.81;99136.22;4989281;28;20045;-80
2022/10/05 07:44:28;;;;;;;5.10;3.20;;;;;;;10.14;74.34;99159.09;4973245;28;20085;-83
2022/10/05 07:47:07;;;;;;;5.78;3.22;;;;;;;10.09;74.17;99154.56;4954470;28;20043;-77
2022/10/05 07:50:02;;;;;;;5.90;3.05;;;;;;;10.06;73.38;99161.47;4938556;28;20043;-80
2022/10/05 07:52:36;;;;;;;4.80;3.20;;;;;;;10.03;74.10;99161.28;4961366;28;20432;-83
2022/10/05 07:55:46;;;;;;;5.97;2.30;;;;;;;9.95;74.21;99164.78;4974004;28;20125;-83
2022/10/05 07:58:40;;;;;;;3.47;2.15;;;;;;;9.95;73.53;99168.31;4954417;28;20050;-78
2022/10/05 08:01:15;;;;;;;3.58;2.00;;;;;;;9.95;73.33;99168.31;4941759;28;20051;-82
2022/10/05 08:03:51;;;;;;;;;;;;;;;10.02;74.42;99168.66;4951407;28;20043;-82
2022/10/05 08:06:43;;;;;;;5.68;2.00;;;;;;;10.06;74.43;99161.47;4972806;28;20045;-83
2022/10/05 08:09:21;;;;;;;3.30;2.08;;;;;;;10.17;74.91;99172.16;4967196;28;20043;-76
2022/10/05 08:11:56;;;;;;;8.82;1.80;;;;;;;10.12;72.88;99173.88;4953686;28;20070;-78
2022/10/05 08:14:55;;;;;;;3.65;2.05;;;;;;;10.13;74.74;99177.41;4965520;28;20585;-83
2022/10/05 08:17:31;;;;;;;3.42;2.00;;;;;;;10.05;74.43;99184.44;4972657;28;20101;-82
2022/10/05 08:20:25;;;;;;;4.38;2.10;;;;;;;10.09;74.32;99179.16;4972626;28;20046;-82
2022/10/05 08:23:01;;;;;;;3.65;2.00;;;;;;;10.11;73.98;99182.38;4972638;28;20046;-81
2022/10/05 08:26:11;;;;;;;5.18;2.40;;;;;;;10.11;74.12;99188.66;4971939;28;20073;-75
2022/10/05 08:29:12;;;;;;;8.95;2.40;;;;;;;10.19;74.44;99181.63;4975381;28;20039;-85
2022/10/05 08:31:43;;;;;;;4.97;2.90;;;;;;;10.28;74.99;99187.97;4966195;28;20050;-80
2022/10/05 08:34:24;;;;;;;8.35;2.63;;;;;;;10.39;74.50;99184.97;4953628;28;20567;-84
2022/10/05 08:37:04;;;;;;;3.33;2.42;;;;;;;10.42;72.56;99187.88;4965367;28;20451;-82
2022/10/05 08:39:47;;;;;;;5.15;2.70;;;;;;;10.50;72.75;99186.31;4973058;28;20042;-86
2022/10/05 08:42:51;;;;;;;5.05;2.78;;;;;;;10.55;72.29;99191.63;4972730;28;20053;-82
2022/10/05 08:45:40;;;;;;;3.38;2.40;;;;;;;10.62;71.63;99194.69;4972844;28;20158;-83
2022/10/05 08:48:25;;;;;;;2.95;2.13;;;;;;;10.62;72.81;99200.16;4926280;28;20051;-78
2022/10/05 08:50:53;;;;;;;6.03;2.50;;;;;;;10.62;72.02;99188.44;4955144;28;20043;-78
2022/10/05 08:53:41;;;;;;;5.65;2.70;;;;;;;10.64;72.01;99188.94;4972297;28;20055;-74
2022/10/05 08:56:55;;;;;;;6.35;2.53;;;;;;;10.85;71.97;99192.69;4967452;28;20043;-75
2022/10/05 09:00:01;;;;;;;4.25;2.30;;;;;;;11.19;71.73;99197.44;4963995;28;20054;-80
2022/10/05 09:03:04;;;;;;;2.83;1.85;;;;;;;11.34;67.88;99195.34;4985880;28;20050;-75
2022/10/05 09:06:00;;;;;;;2.70;1.90;;;;;;;11.35;69.25;99200.50;4972477;28;20073;-76
2022/10/05 09:08:47;;;;;;;4.00;1.83;;;;;;;11.45;68.68;99199.38;4974523;28;20475;-77
2022/10/05 09:11:24;;;;;;;1.52;1.40;;;;;;;11.45;68.17;99202.91;4975853;28;20042;-81
2022/10/05 09:14:11;;;;;;;2.97;1.58;;;;;;;11.48;68.89;99206.94;4979012;28;20054;-79
2022/10/05 09:16:56;;;;;;;4.70;2.25;;;;;;;11.29;68.37;99197.13;4975581;28;20508;-84
2022/10/05 09:19:31;;;;;;;9.20;2.00;;;;;;;11.32;66.17;99211.28;4969616;28;20042;-82
2022/10/05 09:22:14;;;;;;;9.80;2.25;;;;;;;11.16;67.33;99209.00;4975657;28;20051;-82
2022/10/05 09:25:07;;;;;;;3.05;1.67;;;;;;;11.13;64.94;99206.13;4975266;28;20043;-80
2022/10/05 09:27:42;;;;;;;12.75;5.35;;;;;;;11.28;66.35;99211.09;4974994;28;20504;-83
2022/10/05 09:30:41;;;;;;;2.28;1.90;;;;;;;11.31;65.50;99215.94;4976479;28;20050;-84
2022/10/05 09:33:25;;;;;;;3.45;2.00;;;;;;;11.14;66.44;99197.56;4975083;28;20043;-80
2022/10/05 09:36:11;;;;;;;6.78;2.70;;;;;;;11.31;66.08;99232.38;4975396;28;20512;-83
2022/10/05 09:38:59;;;;;;;3.85;2.20;;;;;;;11.41;66.78;99218.38;4974534;28;20472;-82
2022/10/05 09:41:58;;;;;;;5.80;2.28;;;;;;;11.32;67.59;99230.44;4975171;28;20122;-83
2022/10/05 09:44:41;;;;;;;6.35;2.33;;;;;;;11.11;68.09;99232.97;4956027;28;20078;-83
2022/10/05 09:47:07;;;;;;;9.73;2.88;;;;;;;11.01;70.09;99242.28;4975004;28;20053;-81
2022/10/05 09:50:07;;;;;;;6.43;2.27;;;;;;;10.89;68.52;99240.13;4974794;28;20042;-80
2022/10/05 09:52:55;;;;;;;2.95;1.83;;;;;;;10.83;69.01;99244.16;4956564;28;20325;-81
2022/10/05 09:55:59;;;;;;;4.18;1.65;;;;;;;10.89;69.98;99244.81;4968927;28;20444;-80
2022/10/05 09:58:49;;;;;;;6.28;2.10;;;;;;;10.85;70.57;99241.91;4974736;28;20039;-79
2022/10/05 10:01:47;;;;;;;4.10;1.98;;;;;;;10.84;69.82;99247.69;4955306;28;20066;-80
2022/10/05 10:05:00;;;;;;;4.70;2.22;;;;;;;10.81;71.48;99246.41;4960743;28;20079;-82
2022/10/05 10:07:49;;;;;;;13.07;5.68;;;;;;;10.66;70.89;99246.81;4974742;28;20046;-81
2022/10/05 10:10:15;;;;;;;9.20;3.10;;;;;;;10.62;69.02;99256.75;4951344;28;20542;-81
2022/10/05 10:12:56;;;;;;;7.15;3.60;;;;;;;10.55;71.85;99258.00;4974726;28;20039;-80
2022/10/05 10:15:34;;;;;;;10.90;4.28;;;;;;;10.39;72.99;99272.41;4941402;28;20479;-81
2022/10/05 10:18:19;;;;;;;6.30;2.35;;;;;;;10.01;72.04;99279.03;4974735;28;20050;-80
2022/10/05 10:21:07;;;;;;;4.68;2.00;;;;;;;9.98;71.33;99281.59;4973917;28;20129;-81
2022/10/05 10:23:59;;;;;;;3.80;2.00;;;;;;;9.93;72.76;99278.97;4974515;28;20086;-81
2022/10/05 10:26:46;;;;;;;7.07;2.63;;;;;;;9.95;73.05;99274.81;4963095;28;20047;-81
2022/10/05 10:29:20;;;;;;;6.57;2.15;;;;;;;10.06;74.08;99269.91;4969321;28;20038;-80
2022/10/05 10:32:06;;;;;;;4.43;2.35;;;;;;;10.16;73.21;99277.84;4979404;28;20039;-80
2022/10/05 10:35:10;;;;;;;4.35;2.20;;;;;;;10.36;74.03;99271.09;4974253;28;20046;-80
2022/10/05 10:37:51;;;;;;;4.22;2.10;;;;;;;10.57;75.40;99280.38;4937293;29;20472;-79
2022/10/05 10:40:27;;;;;;;7.75;2.40;;;;;;;10.76;75.72;99279.34;4954887;28;20042;-79
2022/10/05 10:42:58;;;;;;;3.30;1.50;;;;;;;10.77;74.18;99276.31;4970821;28;20116;-80
2022/10/05 10:45:27;;;;;;;5.25;1.88;;;;;;;10.70;73.56;99286.88;4956975;28;20080;-79
2022/10/05 10:48:26;;;;;;;4.78;2.00;;;;;;;10.63;72.24;99292.00;4976550;28;20046;-79
2022/10/05 10:51:05;;;;;;;51.13;29.50;;;;;;;10.61;72.72;99283.28;4934845;29;20196;-90
2022/10/05 10:53:43;;;;;;;258.35;147.45;;;;;;;10.57;72.75;99285.84;4972763;28;20042;-80
2022/10/05 10:56:33;;;;;;;132.15;82.15;;;;;;;10.57;72.91;99291.31;4954881;28;20520;-88
2022/10/05 10:59:22;;;;;;;85.95;57.78;;;;;;;10.54;72.70;99294.69;4955006;29;20134;-80
2022/10/05 11:02:13;;;;;;;76.10;55.03;;;;;;;10.64;73.69;99292.81;4956588;28;20066;-84
2022/10/05 11:05:02;;;;;;;217.70;145.90;;;;;;;10.74;73.74;99292.53;4949613;28;20465;-85
2022/10/05 11:07:43;;;;;;;633.65;396.77;;;;;;;10.91;73.17;99297.28;4974138;28;20109;-84
2022/10/05 11:10:41;;;;;;;221.90;126.05;;;;;;;11.00;72.05;99301.66;4973918;28;20130;-88
2022/10/05 11:13:30;;;;;;;196.48;101.32;;;;;;;11.17;71.06;99291.91;4966862;28;20154;-77
2022/10/05 11:16:20;;;;;;;142.65;62.90;;;;;;;11.36;71.18;99292.44;4950038;28;20043;-82
2022/10/05 11:19:24;;;;;;;31.70;11.02;;;;;;;11.37;68.50;99299.50;4956387;28;20050;-84
2022/10/05 11:22:18;;;;;;;231.65;77.15;;;;;;;11.18;68.84;99315.38;4986038;28;20046;-73
2022/10/05 11:25:19;;;;;;;360.92;132.25;;;;;;;11.14;71.42;99317.16;4976599;28;20054;-76
2022/10/05 11:28:29;;;;;;;319.98;121.15;;;;;;;10.97;70.47;99315.97;4992549;28;20534;-73
2022/10/05 11:31:19;;;;;;;196.88;77.82;;;;;;;11.10;70.93;99318.91;4959231;28;20074;-73
2022/10/05 11:34:20;;;;;;;151.45;57.92;;;;;;;11.34;70.38;99324.78;4957372;28;20043;-73
2022/10/05 11:37:12;;;;;;;110.00;37.28;;;;;;;11.53;69.60;99328.06;4969171;28;20134;-75
2022/10/05 11:39:54;;;;;;;58.88;25.40;;;;;;;11.65;68.09;99323.88;4953845;28;20047;-74
2022/10/05 11:42:32;;;;;;;39.85;16.95;;;;;;;11.72;68.33;99327.78;4969487;28;20030;-76
2022/10/05 11:46:02;;;;;;;51.78;19.83;;;;;;;11.65;67.81;99332.09;4960183;28;20126;-72
2022/10/05 11:48:56;;;;;;;120.57;41.25;;;;;;;11.51;66.66;99337.69;4859468;29;20056;-87
2022/10/05 11:51:33;;;;;;;76.90;26.58;;;;;;;11.48;67.22;99339.13;4891953;29;20049;-73
2022/10/05 11:54:17;;;;;;;;;;;;;;;11.43;66.48;99342.03;4892840;29;20045;-77
2022/10/05 11:56:55;;;;;;;269.13;51.28;;;;;;;11.31;67.69;99338.28;4889962;29;20021;-75
2022/10/05 11:59:50;;;;;;;579.85;111.20;;;;;;;11.32;67.97;99337.97;4876815;29;20060;-79
2022/10/05 12:02:40;;;;;;;128.70;22.20;;;;;;;11.22;68.12;99349.19;4869934;29;20049;-73
2022/10/05 12:05:18;;;;;;;270.63;47.20;;;;;;;11.22;68.54;99349.19;4889461;29;20052;-74
2022/10/05 12:07:56;;;;;;;183.85;31.52;;;;;;;11.26;68.17;99344.72;4880739;29;20041;-78
2022/10/05 12:11:01;;;;;;;214.93;44.95;;;;;;;11.13;68.47;99368.34;4876478;29;20049;-76
2022/10/05 12:13:50;;;;;;;106.07;23.70;;;;;;;11.11;70.38;99365.09;4889664;29;20144;-74
2022/10/05 12:16:48;;;;;;;117.68;26.55;;;;;;;11.03;71.08;99380.34;4886378;29;20108;-75
2022/10/05 12:19:27;;;;;;;42.78;10.93;;;;;;;11.05;70.13;99358.13;4890730;29;20119;-83
2022/10/05 12:22:03;;;;;;;7.25;2.97;;;;;;;11.14;69.02;99374.59;4890573;29;20048;-79
2022/10/05 12:24:37;;;;;;;6.28;3.20;;;;;;;11.08;69.48;99375.84;4908178;29;20050;-82
2022/10/05 12:27:12;;;;;;;30.98;11.55;;;;;;;11.03;70.37;99374.88;4936705;29;20035;-74
2022/10/05 12:30:10;;;;;;;20.75;7.53;;;;;;;10.93;71.67;99375.16;4933707;29;20059;-82
2022/10/05 12:33:01;;;;;;;28.60;11.48;;;;;;;10.79;70.14;99385.34;4933594;29;20086;-80
2022/10/05 12:35:34;;;;;;;34.20;13.57;;;;;;;10.54;72.80;99378.59;4951350;29;20059;-79
2022/10/05 12:38:27;;;;;;;35.25;16.90;;;;;;;10.43;72.81;99390.88;4942811;28;20126;-80
2022/10/05 12:40:56;;;;;;;22.33;11.10;;;;;;;10.47;71.74;99395.44;4950504;29;20050;-83
2022/10/05 12:43:37;;;;;;;12.00;5.47;;;;;;;10.45;72.00;99389.47;4942265;28;20039;-78
2022/10/05 12:46:41;;;;;;;12.07;5.93;;;;;;;10.50;72.80;99394.03;4938370;28;20044;-80
2022/10/05 12:49:21;;;;;;;14.85;5.63;;;;;;;10.53;73.40;99396.94;4945372;29;20536;-77
2022/10/05 12:51:57;;;;;;;10.52;4.97;;;;;;;10.48;73.84;99391.59;4954283;29;20047;-74
2022/10/05 12:54:34;;;;;;;31.60;10.73;;;;;;;10.53;73.05;99402.41;4955547;28;20047;-75
2022/10/05 12:57:01;;;;;;;16.10;2.95;;;;;;;10.60;71.73;99398.44;4953647;29;20047;-79
2022/10/05 12:59:40;;;;;;;17.95;6.80;;;;;;;10.58;73.00;99410.47;4955599;28;20110;-75
2022/10/05 13:02:43;;;;;;;7.15;2.60;;;;;;;10.55;70.67;99396.63;4969726;28;20520;-79
2022/10/05 13:05:10;;;;;;;15.43;3.80;;;;;;;10.61;72.11;99398.09;4961226;28;20464;-75